createdAt,value
2019-02-14T00:02:19.214Z,14.03
2019-02-14T00:04:54.127Z,14.47
2019-02-14T00:07:27.427Z,15.83
2019-02-14T00:10:01.303Z,17.40
2019-02-14T00:12:34.621Z,15.00
2019-02-14T00:15:13.053Z,18.07
2019-02-14T00:17:46.375Z,14.80
2019-02-14T00:20:19.668Z,18.53
2019-02-14T00:22:52.967Z,14.07
2019-02-14T00:25:26.998Z,16.60
2019-02-14T00:28:00.293Z,21.10
2019-02-14T00:30:33.665Z,16.17
2019-02-14T00:33:06.965Z,17.00
2019-02-14T00:35:40.258Z,14.77
2019-02-14T00:38:14.433Z,16.10
2019-02-14T00:40:49.209Z,16.27
2019-02-14T00:43:22.538Z,17.23
2019-02-14T00:45:56.162Z,17.10
2019-02-14T00:48:29.462Z,20.73
2019-02-14T00:51:02.814Z,18.47
2019-02-14T00:53:36.126Z,17.90
2019-02-14T00:56:09.413Z,24.97
2019-02-14T00:58:43.436Z,19.00
2019-02-14T01:01:16.709Z,21.53
2019-02-14T01:03:51.667Z,22.23
2019-02-14T01:06:24.974Z,18.93
2019-02-14T01:08:58.305Z,17.87
2019-02-14T01:11:31.664Z,18.90
2019-02-14T01:14:05.038Z,16.00
2019-02-14T01:16:38.892Z,18.10
2019-02-14T01:19:12.524Z,14.33
2019-02-14T01:21:45.791Z,17.80
2019-02-14T01:24:19.126Z,15.03
2019-02-14T01:26:52.435Z,16.53
2019-02-14T01:29:25.746Z,17.30
2019-02-14T01:31:59.027Z,18.13
2019-02-14T01:34:32.343Z,17.80
2019-02-14T01:37:05.643Z,17.63
2019-02-14T01:39:38.948Z,20.80
2019-02-14T01:42:12.250Z,20.60
2019-02-14T01:44:45.563Z,19.87
2019-02-14T01:47:18.847Z,18.27
2019-02-14T01:49:52.143Z,18.40
2019-02-14T01:52:25.439Z,17.70
2019-02-14T01:54:58.734Z,20.63
2019-02-14T01:57:32.035Z,19.50
2019-02-14T02:00:10.243Z,19.87
2019-02-14T02:02:43.640Z,17.13
2019-02-14T02:05:16.931Z,16.57
2019-02-14T02:07:50.227Z,20.60
2019-02-14T02:10:24.364Z,15.50
2019-02-14T02:12:58.431Z,17.10
2019-02-14T02:15:31.713Z,18.67
2019-02-14T02:18:05.010Z,19.60
2019-02-14T02:20:38.310Z,22.10
2019-02-14T02:23:11.612Z,19.40
2019-02-14T02:25:45.477Z,21.53
2019-02-14T02:28:18.882Z,19.90
2019-02-14T02:30:52.176Z,20.50
2019-02-14T02:33:25.535Z,17.40
2019-02-14T02:36:00.712Z,17.87
2019-02-14T02:38:33.826Z,19.23
2019-02-14T02:41:07.100Z,22.87
2019-02-14T02:43:40.412Z,20.87
2019-02-14T02:46:13.686Z,18.83
2019-02-14T02:48:46.977Z,25.50
2019-02-14T02:51:20.278Z,22.23
2019-02-14T02:53:54.129Z,21.90
2019-02-14T02:56:27.431Z,21.37
2019-02-14T02:59:01.388Z,24.37
2019-02-14T03:01:34.671Z,26.43
2019-02-14T03:04:08.533Z,21.27
2019-02-14T03:06:41.818Z,19.87
2019-02-14T03:09:15.106Z,28.77
2019-02-14T03:11:48.396Z,31.83
2019-02-14T03:14:21.689Z,18.03
2019-02-14T03:16:56.603Z,18.40
2019-02-14T03:19:29.886Z,19.57
2019-02-14T03:22:03.182Z,21.87
2019-02-14T03:24:36.706Z,17.17
2019-02-14T03:27:10.004Z,22.60
2019-02-14T03:29:43.298Z,18.20
2019-02-14T03:32:16.570Z,18.37
2019-02-14T03:34:49.863Z,26.63
2019-02-14T03:37:23.762Z,20.87
2019-02-14T03:39:57.068Z,19.33
2019-02-14T03:42:30.356Z,19.67
2019-02-14T03:45:05.128Z,23.10
2019-02-14T03:47:39.657Z,20.37
2019-02-14T03:50:14.961Z,21.60
2019-02-14T03:52:48.244Z,24.40
2019-02-14T03:55:21.539Z,19.47
2019-02-14T03:57:54.823Z,18.70
2019-02-14T04:00:28.125Z,17.13
2019-02-14T04:03:01.413Z,21.60
2019-02-14T04:05:34.713Z,20.60
2019-02-14T04:08:07.997Z,19.50
2019-02-14T04:10:41.291Z,18.30
2019-02-14T04:13:14.574Z,17.67
2019-02-14T04:15:47.867Z,22.20
2019-02-14T04:18:21.159Z,19.23
2019-02-14T04:20:55.021Z,21.90
2019-02-14T04:23:28.297Z,18.13
2019-02-14T04:26:03.239Z,17.47
2019-02-14T04:28:36.532Z,20.77
2019-02-14T04:31:09.870Z,21.10
2019-02-14T04:33:43.155Z,17.40
2019-02-14T04:36:16.461Z,19.87
2019-02-14T04:38:49.763Z,19.67
2019-02-14T04:41:23.066Z,19.83
2019-02-14T04:43:56.370Z,14.73
2019-02-14T04:46:29.674Z,18.93
2019-02-14T04:49:02.977Z,18.83
2019-02-14T04:51:36.270Z,21.57
2019-02-14T04:54:10.120Z,18.60
2019-02-14T04:56:43.403Z,19.83
2019-02-14T04:59:16.681Z,17.33
2019-02-14T05:01:49.985Z,16.13
2019-02-14T05:04:23.280Z,15.80
2019-02-14T05:06:56.580Z,16.37
2019-02-14T05:09:29.879Z,18.93
2019-02-14T05:12:03.157Z,20.70
2019-02-14T05:14:36.437Z,19.63
2019-02-14T05:17:09.747Z,19.60
2019-02-14T05:19:43.037Z,18.77
2019-02-14T05:22:16.324Z,18.27
2019-02-14T05:24:51.341Z,16.70
2019-02-14T05:27:24.625Z,19.57
2019-02-14T05:29:57.934Z,18.93
2019-02-14T05:32:31.214Z,14.57
2019-02-14T05:35:05.441Z,19.40
2019-02-14T05:37:38.721Z,17.93
2019-02-14T05:40:12.184Z,15.30
2019-02-14T05:42:45.464Z,18.73
2019-02-14T05:45:18.781Z,18.97
2019-02-14T05:47:52.054Z,16.70
2019-02-14T05:50:25.365Z,21.60
2019-02-14T05:52:58.662Z,16.20
2019-02-14T05:55:32.033Z,20.40
2019-02-14T05:58:05.332Z,19.17
2019-02-14T06:00:38.610Z,19.03
2019-02-14T06:03:11.912Z,26.73
2019-02-14T06:05:45.212Z,27.60
2019-02-14T06:08:18.499Z,27.07
2019-02-14T06:10:51.825Z,27.40
2019-02-14T06:13:25.100Z,23.03
2019-02-14T06:15:58.421Z,31.50
2019-02-14T06:18:31.690Z,27.23
2019-02-14T06:21:04.983Z,28.50
2019-02-14T06:23:38.262Z,28.70
2019-02-14T06:26:11.581Z,28.53
2019-02-14T06:28:44.862Z,23.53
2019-02-14T06:31:18.167Z,21.17
2019-02-14T06:33:51.459Z,21.43
2019-02-14T06:36:25.853Z,25.47
2019-02-14T06:38:59.170Z,20.10
2019-02-14T06:41:33.562Z,22.40
2019-02-14T06:44:06.835Z,23.07
2019-02-14T06:46:40.147Z,22.83
2019-02-14T06:49:13.428Z,21.23
2019-02-14T06:51:46.743Z,18.23
2019-02-14T06:54:20.025Z,20.37
2019-02-14T06:56:55.641Z,15.93
2019-02-14T06:59:28.935Z,21.47
2019-02-14T07:02:02.251Z,26.37
2019-02-14T07:04:35.539Z,20.70
2019-02-14T07:07:08.837Z,22.73
2019-02-14T07:09:42.125Z,28.47
2019-02-14T07:12:15.439Z,27.77
2019-02-14T07:14:49.732Z,24.83
2019-02-14T07:17:23.030Z,23.37
2019-02-14T07:19:56.314Z,32.87
2019-02-14T07:22:31.151Z,27.00
2019-02-14T07:25:06.458Z,25.63
2019-02-14T07:27:39.761Z,19.10
2019-02-14T07:30:19.489Z,25.10
2019-02-14T07:32:52.780Z,17.13
2019-02-14T07:35:26.093Z,23.60
2019-02-14T07:37:59.498Z,21.87
2019-02-14T07:40:32.740Z,22.17
2019-02-14T07:43:06.036Z,20.53
2019-02-14T07:45:39.327Z,19.80
2019-02-14T07:48:12.619Z,20.40
2019-02-14T07:50:45.890Z,21.03
2019-02-14T07:53:19.195Z,20.63
2019-02-14T07:55:52.481Z,22.63
2019-02-14T07:58:25.798Z,24.67
2019-02-14T08:00:59.073Z,24.57
2019-02-14T08:03:32.399Z,24.37
2019-02-14T08:06:05.697Z,23.77
2019-02-14T08:08:39.007Z,22.33
2019-02-14T08:11:12.293Z,26.27
2019-02-14T08:13:45.587Z,26.27
2019-02-14T08:16:18.880Z,25.20
2019-02-14T08:18:53.153Z,19.77
2019-02-14T08:21:26.426Z,31.33
2019-02-14T08:23:59.718Z,24.63
2019-02-14T08:26:33.011Z,28.07
2019-02-14T08:29:06.357Z,28.33
2019-02-14T08:31:39.646Z,27.60
2019-02-14T08:34:13.029Z,24.80
2019-02-14T08:36:46.296Z,22.30
2019-02-14T08:39:20.635Z,26.00
2019-02-14T08:41:53.929Z,29.83
2019-02-14T08:44:27.228Z,28.27
2019-02-14T08:47:00.519Z,26.30
2019-02-14T08:49:35.212Z,26.97
2019-02-14T08:52:08.596Z,22.00
2019-02-14T08:54:41.877Z,23.87
2019-02-14T08:57:16.787Z,22.27
2019-02-14T08:59:50.083Z,26.03
2019-02-14T09:02:23.386Z,30.53
2019-02-14T09:04:56.668Z,28.80
2019-02-14T09:07:30.058Z,27.13
2019-02-14T09:10:03.616Z,29.50
2019-02-14T09:12:36.918Z,28.43
2019-02-14T09:15:12.375Z,29.80
2019-02-14T09:17:45.694Z,28.53
2019-02-14T09:20:20.424Z,22.47
2019-02-14T09:22:53.718Z,23.03
2019-02-14T09:25:27.000Z,19.70
2019-02-14T09:28:03.291Z,14.87
2019-02-14T09:30:36.593Z,16.53
2019-02-14T09:33:09.854Z,16.27
2019-02-14T09:35:43.157Z,15.73
2019-02-14T09:38:16.242Z,15.57
2019-02-14T09:40:49.541Z,14.27
2019-02-14T09:43:29.564Z,20.33
2019-02-14T09:45:58.795Z,15.90
2019-02-14T09:48:32.140Z,18.30
2019-02-14T09:51:05.411Z,19.17
2019-02-14T09:53:38.700Z,19.90
2019-02-14T09:56:12.023Z,15.13
2019-02-14T09:58:45.333Z,16.00
2019-02-14T10:01:18.640Z,16.50
2019-02-14T10:03:53.195Z,17.67
2019-02-14T10:06:26.484Z,16.63
2019-02-14T10:09:00.803Z,13.83
2019-02-14T10:11:34.342Z,16.73
2019-02-14T10:14:07.616Z,16.83
2019-02-14T10:16:40.918Z,14.83
2019-02-14T10:19:14.353Z,16.63
2019-02-14T10:21:47.652Z,17.57
2019-02-14T10:24:20.936Z,12.60
2019-02-14T10:26:54.623Z,13.23
2019-02-14T10:29:27.897Z,17.53
2019-02-14T10:32:01.207Z,16.17
2019-02-14T10:34:34.477Z,21.13
2019-02-14T10:37:07.805Z,15.97
2019-02-14T10:39:41.095Z,16.00
2019-02-14T10:42:14.441Z,15.93
2019-02-14T10:44:47.713Z,16.93
2019-02-14T10:47:21.008Z,18.70
2019-02-14T10:49:55.341Z,19.50
2019-02-14T10:52:28.614Z,17.10
2019-02-14T10:55:01.939Z,16.93
2019-02-14T10:57:35.228Z,16.23
2019-02-14T11:00:20.537Z,17.80
2019-02-14T11:02:53.893Z,19.53
2019-02-14T11:05:27.737Z,13.53
2019-02-14T11:08:01.031Z,18.10
2019-02-14T11:10:34.322Z,15.77
2019-02-14T11:13:07.615Z,19.63
2019-02-14T11:15:40.918Z,14.93
2019-02-14T11:18:14.200Z,18.83
2019-02-14T11:20:47.501Z,16.57
2019-02-14T11:23:21.790Z,19.97
2019-02-14T11:25:55.082Z,16.60
2019-02-14T11:28:28.362Z,14.30
2019-02-14T11:31:01.649Z,16.83
2019-02-14T11:33:34.917Z,16.63
2019-02-14T11:36:08.212Z,14.73
2019-02-14T11:38:42.530Z,17.77
2019-02-14T11:41:15.820Z,15.20
2019-02-14T11:43:49.135Z,16.47
2019-02-14T11:46:22.406Z,15.87
2019-02-14T11:48:55.689Z,14.70
2019-02-14T11:51:28.971Z,14.57
2019-02-14T11:54:02.262Z,15.57
2019-02-14T11:56:35.567Z,15.10
2019-02-14T11:59:08.843Z,11.83
2019-02-14T12:01:42.146Z,11.50
2019-02-14T12:04:15.429Z,14.73
2019-02-14T12:06:48.822Z,13.27
2019-02-14T12:09:22.191Z,16.97
2019-02-14T12:11:55.498Z,16.07
2019-02-14T12:14:28.790Z,11.90
2019-02-14T12:17:02.095Z,15.77
2019-02-14T12:19:35.367Z,12.23
2019-02-14T12:22:08.678Z,15.77
2019-02-14T12:24:41.958Z,14.20
2019-02-14T12:27:15.262Z,13.70
2019-02-14T12:29:48.548Z,14.63
2019-02-14T12:32:21.946Z,13.80
2019-02-14T12:34:55.225Z,12.20
2019-02-14T12:37:28.519Z,19.80
2019-02-14T12:40:01.822Z,12.80
2019-02-14T12:42:35.112Z,13.80
2019-02-14T12:45:25.752Z,13.90
2019-02-14T12:47:58.280Z,16.33
2019-02-14T12:50:31.564Z,13.27
2019-02-14T12:53:04.876Z,17.07
2019-02-14T12:55:38.215Z,14.53
2019-02-14T12:58:11.521Z,16.77
2019-02-14T13:00:44.814Z,15.47
2019-02-14T13:03:18.130Z,17.77
2019-02-14T13:05:51.473Z,14.50
2019-02-14T13:08:26.026Z,17.37
2019-02-14T13:10:59.296Z,16.53
2019-02-14T13:13:32.604Z,15.17
2019-02-14T13:16:05.930Z,16.73
2019-02-14T13:18:39.238Z,15.43
2019-02-14T13:21:12.527Z,16.10
2019-02-14T13:23:46.411Z,19.33
2019-02-14T13:26:19.714Z,15.17
2019-02-14T13:28:53.025Z,14.43
2019-02-14T13:31:32.078Z,15.00
2019-02-14T13:34:01.385Z,14.70
2019-02-14T13:36:34.634Z,14.93
2019-02-14T13:39:08.019Z,17.77
2019-02-14T13:41:41.276Z,17.60
2019-02-14T13:44:14.779Z,17.80
2019-02-14T13:46:48.521Z,18.43
2019-02-14T13:49:21.836Z,16.80
2019-02-14T13:51:55.091Z,21.83
2019-02-14T13:54:28.973Z,17.73
2019-02-14T13:57:02.334Z,18.57
2019-02-14T13:59:35.649Z,16.07
2019-02-14T14:02:10.574Z,21.07
2019-02-14T14:04:44.875Z,15.17
2019-02-14T14:07:18.426Z,15.80
2019-02-14T14:09:51.685Z,17.47
2019-02-14T14:12:24.826Z,16.73
2019-02-14T14:14:58.242Z,17.03
2019-02-14T14:17:31.530Z,17.50
2019-02-14T14:20:06.477Z,21.03
2019-02-14T14:22:40.946Z,20.03
2019-02-14T14:25:14.274Z,16.03
2019-02-14T14:27:47.566Z,18.03
2019-02-14T14:30:20.864Z,14.40
2019-02-14T14:32:54.141Z,17.53
2019-02-14T14:35:27.442Z,16.80
2019-02-14T14:38:00.729Z,16.47
2019-02-14T14:40:34.045Z,18.77
2019-02-14T14:43:18.020Z,18.83
2019-02-14T14:46:01.816Z,19.30
2019-02-14T14:48:36.745Z,16.17
2019-02-14T14:51:10.132Z,16.80
2019-02-14T14:53:43.420Z,18.10
2019-02-14T14:56:16.721Z,18.40
2019-02-14T14:58:50.176Z,18.20
2019-02-14T15:01:23.471Z,17.50
2019-02-14T15:03:56.766Z,18.73
2019-02-14T15:06:30.111Z,19.37
2019-02-14T15:09:03.772Z,17.37
2019-02-14T15:11:37.090Z,19.23
2019-02-14T15:14:11.711Z,17.43
2019-02-14T15:16:45.109Z,17.57
2019-02-14T15:19:18.399Z,19.03
2019-02-14T15:21:51.734Z,16.67
2019-02-14T15:24:25.017Z,18.57
2019-02-14T15:26:58.346Z,20.57
2019-02-14T15:29:31.654Z,20.53
2019-02-14T15:32:04.988Z,16.37
2019-02-14T15:34:38.271Z,18.20
2019-02-14T15:37:12.714Z,19.50
2019-02-14T15:39:46.589Z,20.73
2019-02-14T15:42:19.916Z,21.63
2019-02-14T15:44:53.204Z,21.50
2019-02-14T15:47:26.500Z,24.17
2019-02-14T15:49:59.774Z,19.27
2019-02-14T15:52:33.168Z,22.27
2019-02-14T15:55:07.678Z,22.40
2019-02-14T15:57:42.911Z,24.77
2019-02-14T16:00:16.051Z,29.20
2019-02-14T16:02:50.442Z,27.57
2019-02-14T16:05:24.423Z,21.83
2019-02-14T16:08:00.307Z,24.23
2019-02-14T16:10:33.602Z,22.93
2019-02-14T16:13:08.083Z,22.70
2019-02-14T16:15:42.024Z,20.20
2019-02-14T16:18:15.340Z,23.10
2019-02-14T16:20:48.612Z,25.30
2019-02-14T16:23:21.943Z,30.70
2019-02-14T16:25:55.238Z,27.00
2019-02-14T16:28:28.553Z,28.10
2019-02-14T16:31:01.863Z,24.07
2019-02-14T16:33:35.212Z,26.23
2019-02-14T16:36:08.483Z,30.03
2019-02-14T16:38:41.789Z,24.83
2019-02-14T16:41:15.101Z,31.80
2019-02-14T16:43:48.375Z,28.57
2019-02-14T16:46:21.696Z,26.73
2019-02-14T16:48:54.984Z,29.53
2019-02-14T16:51:28.316Z,34.03
2019-02-14T16:54:01.610Z,30.23
2019-02-14T16:56:34.961Z,27.80
2019-02-14T16:59:08.249Z,24.90
2019-02-14T17:01:41.556Z,30.33
2019-02-14T17:04:15.687Z,29.77
2019-02-14T17:06:48.994Z,30.47
2019-02-14T17:09:22.294Z,41.30
2019-02-14T17:11:55.585Z,56.37
2019-02-14T17:14:28.870Z,95.37
2019-02-14T17:17:02.172Z,38.73
2019-02-14T17:19:35.998Z,391.70
2019-02-14T17:22:10.105Z,368.13
2019-02-14T17:24:43.396Z,147.07
2019-02-14T17:27:16.721Z,113.30
2019-02-14T17:29:51.648Z,40.53
2019-02-14T17:32:24.953Z,97.00
2019-02-14T17:34:58.238Z,146.90
2019-02-14T17:37:31.591Z,64.40
2019-02-14T17:40:07.918Z,70.93
2019-02-14T17:42:41.225Z,68.87
2019-02-14T17:45:14.515Z,72.93
2019-02-14T17:47:47.833Z,45.80
2019-02-14T17:50:21.128Z,37.53
2019-02-14T17:52:54.445Z,35.33
2019-02-14T17:55:27.794Z,39.50
2019-02-14T17:58:01.090Z,38.83
2019-02-14T18:00:34.398Z,37.97
2019-02-14T18:03:07.716Z,36.43
2019-02-14T18:05:40.998Z,34.70
2019-02-14T18:08:14.367Z,40.40
2019-02-14T18:10:54.768Z,39.33
2019-02-14T18:13:22.680Z,34.67
2019-02-14T18:15:55.985Z,33.80
2019-02-14T18:18:29.309Z,36.83
2019-02-14T18:21:02.618Z,39.53
2019-02-14T18:23:35.951Z,35.33
2019-02-14T18:26:09.347Z,34.00
2019-02-14T18:28:42.661Z,34.27
2019-02-14T18:31:15.935Z,35.33
2019-02-14T18:33:49.272Z,34.73
2019-02-14T18:36:22.599Z,36.20
2019-02-14T18:38:55.922Z,32.87
2019-02-14T18:41:29.251Z,31.47
2019-02-14T18:44:02.587Z,35.30
2019-02-14T18:46:35.892Z,34.20
2019-02-14T18:49:09.232Z,35.87
2019-02-14T18:51:42.563Z,36.37
2019-02-14T18:54:15.884Z,32.13
2019-02-14T18:56:49.232Z,32.37
2019-02-14T18:59:22.547Z,33.43
2019-02-14T19:01:56.587Z,28.90
2019-02-14T19:04:30.008Z,32.47
2019-02-14T19:07:03.480Z,29.27
2019-02-14T19:09:36.824Z,29.17
2019-02-14T19:12:11.041Z,32.20
2019-02-14T19:14:44.388Z,33.50
2019-02-14T19:17:17.691Z,35.70
2019-02-14T19:19:51.023Z,34.83
2019-02-14T19:22:24.331Z,34.37
2019-02-14T19:24:57.673Z,35.90
2019-02-14T19:27:31.075Z,36.27
2019-02-14T19:30:06.774Z,40.47
2019-02-14T19:32:40.136Z,38.40
2019-02-14T19:35:22.423Z,39.97
2019-02-14T19:37:48.513Z,32.17
2019-02-14T19:40:21.832Z,35.10
2019-02-14T19:42:55.190Z,40.43
2019-02-14T19:45:36.407Z,36.50
2019-02-14T19:48:03.576Z,31.77
2019-02-14T19:50:36.961Z,38.60
2019-02-14T19:53:10.344Z,36.63
2019-02-14T19:55:43.639Z,35.13
2019-02-14T19:58:16.970Z,36.80
2019-02-14T20:00:50.419Z,36.17
2019-02-14T20:03:23.709Z,38.77
2019-02-14T20:05:57.043Z,30.80
2019-02-14T20:08:30.376Z,31.30
2019-02-14T20:11:03.763Z,36.33
2019-02-14T20:13:37.063Z,34.63
2019-02-14T20:16:10.400Z,35.67
2019-02-14T20:18:43.719Z,36.10
2019-02-14T20:21:17.013Z,39.67
2019-02-14T20:23:50.324Z,41.50
2019-02-14T20:26:23.609Z,37.70
2019-02-14T20:28:56.930Z,35.93
2019-02-14T20:31:31.906Z,34.57
2019-02-14T20:34:05.223Z,35.90
2019-02-14T20:36:38.520Z,35.53
2019-02-14T20:39:11.828Z,35.40
2019-02-14T20:41:46.549Z,32.47
2019-02-14T20:44:19.941Z,33.13
2019-02-14T20:46:53.208Z,38.33
2019-02-14T20:49:27.903Z,37.73
2019-02-14T20:52:01.178Z,33.37
2019-02-14T20:54:34.569Z,35.97
2019-02-14T20:57:08.326Z,36.20
2019-02-14T20:59:41.735Z,46.70
2019-02-14T21:02:15.076Z,35.33
2019-02-14T21:04:48.436Z,35.37
2019-02-14T21:07:21.662Z,34.87
2019-02-14T21:09:55.973Z,42.33
2019-02-14T21:12:29.261Z,37.47
2019-02-14T21:15:02.632Z,43.00
2019-02-14T21:17:35.949Z,36.53
2019-02-14T21:20:11.601Z,45.53
2019-02-14T21:22:44.915Z,45.60
2019-02-14T21:25:22.394Z,43.30
2019-02-14T21:27:54.506Z,44.67
2019-02-14T21:30:27.829Z,35.17
2019-02-14T21:33:01.167Z,41.20
2019-02-14T21:35:34.475Z,34.97
2019-02-14T21:38:07.805Z,48.17
2019-02-14T21:40:41.368Z,35.23
2019-02-14T21:43:14.719Z,32.63
2019-02-14T21:45:48.042Z,32.23
2019-02-14T21:48:21.347Z,36.33
2019-02-14T21:50:54.671Z,42.90
2019-02-14T21:53:27.971Z,34.63
2019-02-14T21:56:01.319Z,38.00
2019-02-14T21:58:34.626Z,39.90
2019-02-14T22:01:08.347Z,41.67
2019-02-14T22:03:41.798Z,41.20
2019-02-14T22:06:15.109Z,41.07
2019-02-14T22:08:48.443Z,41.33
2019-02-14T22:11:21.767Z,47.00
2019-02-14T22:13:55.086Z,40.00
2019-02-14T22:16:28.407Z,45.80
2019-02-14T22:19:01.714Z,43.03
2019-02-14T22:21:35.063Z,44.77
2019-02-14T22:24:08.375Z,42.63
2019-02-14T22:26:41.702Z,52.87
2019-02-14T22:29:15.066Z,43.87
2019-02-14T22:31:48.365Z,46.57
2019-02-14T22:34:21.695Z,47.47
2019-02-14T22:36:54.986Z,45.73
2019-02-14T22:39:28.391Z,48.47
2019-02-14T22:42:01.698Z,57.53
2019-02-14T22:44:35.024Z,44.20
2019-02-14T22:47:08.307Z,47.97
2019-02-14T22:49:41.676Z,48.03
2019-02-14T22:52:14.981Z,49.23
2019-02-14T22:54:48.307Z,55.33
2019-02-14T22:57:21.603Z,50.60
2019-02-14T22:59:54.940Z,53.40
2019-02-14T23:02:28.299Z,53.93
2019-02-14T23:05:01.683Z,42.43
2019-02-14T23:07:34.998Z,52.03
2019-02-14T23:10:08.416Z,51.57
2019-02-14T23:12:41.726Z,38.93
2019-02-14T23:15:15.443Z,42.60
2019-02-14T23:17:48.761Z,41.70
2019-02-14T23:20:22.154Z,41.93
2019-02-14T23:22:55.453Z,40.10
2019-02-14T23:25:28.772Z,43.00
2019-02-14T23:28:02.069Z,51.20
2019-02-14T23:30:35.382Z,40.87
2019-02-14T23:33:08.709Z,41.40
2019-02-14T23:35:42.058Z,41.77
2019-02-14T23:38:15.351Z,40.90
2019-02-14T23:40:48.682Z,43.97
2019-02-14T23:43:22.016Z,42.30
2019-02-14T23:45:55.325Z,35.83
2019-02-14T23:48:28.624Z,35.77
2019-02-14T23:51:03.550Z,35.77
2019-02-14T23:53:37.031Z,36.40
2019-02-14T23:56:10.364Z,36.07
2019-02-14T23:58:43.656Z,32.70
